sensor_id;sensor_type;location;lat;lon;timestamp;temperature;humidity
70294;DHT22;72548;48.884;2.334;2023-09-19T00:00:06;17.29;72.07
70294;DHT22;72548;48.884;2.334;2023-09-19T00:02:32;17.25;71.94
70294;DHT22;72548;48.884;2.334;2023-09-19T00:04:58;17.25;71.67
70294;DHT22;72548;48.884;2.334;2023-09-19T00:07:24;17.22;71.71
70294;DHT22;72548;48.884;2.334;2023-09-19T00:09:49;17.20;72.03
70294;DHT22;72548;48.884;2.334;2023-09-19T00:12:15;17.20;72.29
70294;DHT22;72548;48.884;2.334;2023-09-19T00:14:40;17.08;72.80
70294;DHT22;72548;48.884;2.334;2023-09-19T00:17:06;17.09;72.87
70294;DHT22;72548;48.884;2.334;2023-09-19T00:19:36;17.09;72.84
70294;DHT22;72548;48.884;2.334;2023-09-19T00:22:05;17.01;73.67
70294;DHT22;72548;48.884;2.334;2023-09-19T00:24:30;17.04;73.42
70294;DHT22;72548;48.884;2.334;2023-09-19T00:26:56;17.14;73.33
70294;DHT22;72548;48.884;2.334;2023-09-19T00:29:25;17.07;73.64
70294;DHT22;72548;48.884;2.334;2023-09-19T00:31:54;17.07;73.78
70294;DHT22;72548;48.884;2.334;2023-09-19T00:34:20;17.02;74.08
70294;DHT22;72548;48.884;2.334;2023-09-19T00:36:45;17.01;74.22
70294;DHT22;72548;48.884;2.334;2023-09-19T00:39:11;16.95;74.48
70294;DHT22;72548;48.884;2.334;2023-09-19T00:41:36;16.89;74.68
70294;DHT22;72548;48.884;2.334;2023-09-19T00:44:02;16.95;74.78
70294;DHT22;72548;48.884;2.334;2023-09-19T00:46:30;16.92;74.70
70294;DHT22;72548;48.884;2.334;2023-09-19T00:48:58;16.89;75.16
70294;DHT22;72548;48.884;2.334;2023-09-19T00:51:25;16.89;75.22
70294;DHT22;72548;48.884;2.334;2023-09-19T00:53:52;16.94;75.23
70294;DHT22;72548;48.884;2.334;2023-09-19T00:56:18;16.95;75.05
70294;DHT22;72548;48.884;2.334;2023-09-19T00:58:45;16.94;75.06
70294;DHT22;72548;48.884;2.334;2023-09-19T01:01:12;16.85;75.26
70294;DHT22;72548;48.884;2.334;2023-09-19T01:03:40;16.94;75.46
70294;DHT22;72548;48.884;2.334;2023-09-19T01:06:06;16.96;75.22
70294;DHT22;72548;48.884;2.334;2023-09-19T01:08:32;16.91;75.43
70294;DHT22;72548;48.884;2.334;2023-09-19T01:11:20;16.82;75.96
70294;DHT22;72548;48.884;2.334;2023-09-19T01:14:30;16.78;76.22
70294;DHT22;72548;48.884;2.334;2023-09-19T01:17:07;16.87;76.20
70294;DHT22;72548;48.884;2.334;2023-09-19T01:22:52;16.81;76.60
70294;DHT22;72548;48.884;2.334;2023-09-19T01:30:52;16.71;76.82
70294;DHT22;72548;48.884;2.334;2023-09-19T01:33:23;16.74;76.66
70294;DHT22;72548;48.884;2.334;2023-09-19T01:35:48;16.71;76.73
70294;DHT22;72548;48.884;2.334;2023-09-19T01:38:15;16.74;76.64
70294;DHT22;72548;48.884;2.334;2023-09-19T01:40:42;16.75;76.64
70294;DHT22;72548;48.884;2.334;2023-09-19T01:43:27;16.75;76.80
70294;DHT22;72548;48.884;2.334;2023-09-19T01:46:10;16.57;76.65
70294;DHT22;72548;48.884;2.334;2023-09-19T01:48:42;16.65;76.67
70294;DHT22;72548;48.884;2.334;2023-09-19T01:51:14;16.65;76.93
70294;DHT22;72548;48.884;2.334;2023-09-19T01:53:49;16.54;76.91
70294;DHT22;72548;48.884;2.334;2023-09-19T01:56:29;16.54;76.65
70294;DHT22;72548;48.884;2.334;2023-09-19T01:59:05;16.60;76.60
70294;DHT22;72548;48.884;2.334;2023-09-19T02:01:33;16.61;76.35
70294;DHT22;72548;48.884;2.334;2023-09-19T02:04:00;16.59;76.67
70294;DHT22;72548;48.884;2.334;2023-09-19T02:06:25;16.47;76.83
70294;DHT22;72548;48.884;2.334;2023-09-19T02:08:53;16.47;76.60
70294;DHT22;72548;48.884;2.334;2023-09-19T02:11:18;16.53;76.58
70294;DHT22;72548;48.884;2.334;2023-09-19T02:13:44;16.54;76.36
70294;DHT22;72548;48.884;2.334;2023-09-19T02:16:09;16.59;76.15
70294;DHT22;72548;48.884;2.334;2023-09-19T02:18:36;16.51;76.22
70294;DHT22;72548;48.884;2.334;2023-09-19T02:21:02;16.57;76.26
70294;DHT22;72548;48.884;2.334;2023-09-19T02:23:27;16.54;76.07
70294;DHT22;72548;48.884;2.334;2023-09-19T02:25:55;16.59;76.06
70294;DHT22;72548;48.884;2.334;2023-09-19T02:28:23;16.54;76.16
70294;DHT22;72548;48.884;2.334;2023-09-19T02:30:49;16.31;75.70
70294;DHT22;72548;48.884;2.334;2023-09-19T02:33:15;16.39;75.92
70294;DHT22;72548;48.884;2.334;2023-09-19T02:35:42;16.49;75.71
70294;DHT22;72548;48.884;2.334;2023-09-19T02:38:07;16.44;75.97
70294;DHT22;72548;48.884;2.334;2023-09-19T02:40:33;16.54;75.18
70294;DHT22;72548;48.884;2.334;2023-09-19T02:43:01;16.46;75.51
70294;DHT22;72548;48.884;2.334;2023-09-19T02:45:27;16.51;75.41
70294;DHT22;72548;48.884;2.334;2023-09-19T02:47:53;16.49;75.52
70294;DHT22;72548;48.884;2.334;2023-09-19T02:50:20;16.47;75.72
70294;DHT22;72548;48.884;2.334;2023-09-19T02:52:51;16.44;75.79
70294;DHT22;72548;48.884;2.334;2023-09-19T02:55:19;16.50;75.56
70294;DHT22;72548;48.884;2.334;2023-09-19T02:57:48;16.44;75.43
70294;DHT22;72548;48.884;2.334;2023-09-19T03:00:15;16.43;75.68
70294;DHT22;72548;48.884;2.334;2023-09-19T03:02:40;16.41;75.34
70294;DHT22;72548;48.884;2.334;2023-09-19T03:05:07;16.36;75.39
70294;DHT22;72548;48.884;2.334;2023-09-19T03:07:33;16.31;75.76
70294;DHT22;72548;48.884;2.334;2023-09-19T03:09:59;16.31;75.54
70294;DHT22;72548;48.884;2.334;2023-09-19T03:12:26;16.33;75.32
70294;DHT22;72548;48.884;2.334;2023-09-19T03:14:51;16.41;74.97
70294;DHT22;72548;48.884;2.334;2023-09-19T03:17:17;16.39;75.23
70294;DHT22;72548;48.884;2.334;2023-09-19T03:19:45;16.36;75.03
70294;DHT22;72548;48.884;2.334;2023-09-19T03:22:10;16.41;75.03
70294;DHT22;72548;48.884;2.334;2023-09-19T03:24:36;16.40;75.08
70294;DHT22;72548;48.884;2.334;2023-09-19T03:27:03;16.37;75.06
70294;DHT22;72548;48.884;2.334;2023-09-19T03:29:28;16.37;74.84
70294;DHT22;72548;48.884;2.334;2023-09-19T03:31:54;16.34;75.16
70294;DHT22;72548;48.884;2.334;2023-09-19T03:34:20;16.24;75.51
70294;DHT22;72548;48.884;2.334;2023-09-19T03:36:45;16.22;75.72
70294;DHT22;72548;48.884;2.334;2023-09-19T03:39:11;16.24;75.56
70294;DHT22;72548;48.884;2.334;2023-09-19T03:41:37;16.26;76.19
70294;DHT22;72548;48.884;2.334;2023-09-19T03:44:03;16.24;76.29
70294;DHT22;72548;48.884;2.334;2023-09-19T03:46:28;16.33;75.83
70294;DHT22;72548;48.884;2.334;2023-09-19T03:48:55;16.29;75.66
70294;DHT22;72548;48.884;2.334;2023-09-19T03:51:21;16.24;75.80
70294;DHT22;72548;48.884;2.334;2023-09-19T03:53:47;16.12;76.24
70294;DHT22;72548;48.884;2.334;2023-09-19T03:56:14;16.20;76.25
70294;DHT22;72548;48.884;2.334;2023-09-19T03:58:40;16.22;76.15
70294;DHT22;72548;48.884;2.334;2023-09-19T04:01:06;16.24;76.33
70294;DHT22;72548;48.884;2.334;2023-09-19T04:03:34;16.26;76.28
70294;DHT22;72548;48.884;2.334;2023-09-19T04:06:11;16.29;76.29
70294;DHT22;72548;48.884;2.334;2023-09-19T04:08:37;16.31;76.16
70294;DHT22;72548;48.884;2.334;2023-09-19T04:11:02;16.27;76.33
70294;DHT22;72548;48.884;2.334;2023-09-19T04:13:28;16.26;76.37
70294;DHT22;72548;48.884;2.334;2023-09-19T04:15:54;16.17;76.77
70294;DHT22;72548;48.884;2.334;2023-09-19T04:18:19;16.22;76.64
70294;DHT22;72548;48.884;2.334;2023-09-19T04:20:49;16.20;76.33
70294;DHT22;72548;48.884;2.334;2023-09-19T04:23:15;16.17;76.43
70294;DHT22;72548;48.884;2.334;2023-09-19T04:25:41;16.16;76.47
70294;DHT22;72548;48.884;2.334;2023-09-19T04:28:06;16.13;76.77
70294;DHT22;72548;48.884;2.334;2023-09-19T04:30:32;16.19;76.45
70294;DHT22;72548;48.884;2.334;2023-09-19T04:32:57;16.29;76.10
70294;DHT22;72548;48.884;2.334;2023-09-19T04:35:24;16.24;75.98
70294;DHT22;72548;48.884;2.334;2023-09-19T04:37:50;16.22;75.90
70294;DHT22;72548;48.884;2.334;2023-09-19T04:40:16;16.20;75.99
70294;DHT22;72548;48.884;2.334;2023-09-19T04:42:43;16.19;76.22
70294;DHT22;72548;48.884;2.334;2023-09-19T04:45:09;16.12;76.49
70294;DHT22;72548;48.884;2.334;2023-09-19T04:47:39;16.13;76.59
70294;DHT22;72548;48.884;2.334;2023-09-19T04:50:08;16.10;76.66
70294;DHT22;72548;48.884;2.334;2023-09-19T04:52:41;16.16;76.46
70294;DHT22;72548;48.884;2.334;2023-09-19T04:57:39;16.08;76.29
70294;DHT22;72548;48.884;2.334;2023-09-19T05:00:05;16.02;76.99
70294;DHT22;72548;48.884;2.334;2023-09-19T05:02:37;16.03;76.95
70294;DHT22;72548;48.884;2.334;2023-09-19T05:05:03;16.05;76.65
70294;DHT22;72548;48.884;2.334;2023-09-19T05:07:30;16.10;76.37
70294;DHT22;72548;48.884;2.334;2023-09-19T05:09:55;16.17;76.24
70294;DHT22;72548;48.884;2.334;2023-09-19T05:12:21;16.08;76.67
70294;DHT22;72548;48.884;2.334;2023-09-19T05:14:46;16.01;76.86
70294;DHT22;72548;48.884;2.334;2023-09-19T05:17:13;16.06;76.74
70294;DHT22;72548;48.884;2.334;2023-09-19T05:19:39;16.10;76.69
70294;DHT22;72548;48.884;2.334;2023-09-19T05:22:04;15.96;77.11
70294;DHT22;72548;48.884;2.334;2023-09-19T05:24:30;16.02;76.91
70294;DHT22;72548;48.884;2.334;2023-09-19T05:26:56;16.01;76.91
70294;DHT22;72548;48.884;2.334;2023-09-19T05:29:22;15.95;76.75
70294;DHT22;72548;48.884;2.334;2023-09-19T05:31:48;15.92;76.96
70294;DHT22;72548;48.884;2.334;2023-09-19T05:34:15;15.93;76.78
70294;DHT22;72548;48.884;2.334;2023-09-19T05:36:40;15.92;76.60
70294;DHT22;72548;48.884;2.334;2023-09-19T05:39:06;15.95;76.62
70294;DHT22;72548;48.884;2.334;2023-09-19T05:41:35;16.02;76.72
70294;DHT22;72548;48.884;2.334;2023-09-19T05:44:02;15.98;76.98
70294;DHT22;72548;48.884;2.334;2023-09-19T05:46:28;16.08;76.27
70294;DHT22;72548;48.884;2.334;2023-09-19T05:48:55;16.08;76.38
70294;DHT22;72548;48.884;2.334;2023-09-19T05:51:22;16.02;76.19
70294;DHT22;72548;48.884;2.334;2023-09-19T05:53:48;15.98;76.03
70294;DHT22;72548;48.884;2.334;2023-09-19T05:56:14;16.01;76.25
70294;DHT22;72548;48.884;2.334;2023-09-19T05:58:40;15.98;76.42
70294;DHT22;72548;48.884;2.334;2023-09-19T06:01:10;15.99;76.59
70294;DHT22;72548;48.884;2.334;2023-09-19T06:03:35;16.03;76.35
70294;DHT22;72548;48.884;2.334;2023-09-19T06:06:01;16.09;76.31
70294;DHT22;72548;48.884;2.334;2023-09-19T06:08:27;15.95;76.57
70294;DHT22;72548;48.884;2.334;2023-09-19T06:10:54;15.85;77.01
70294;DHT22;72548;48.884;2.334;2023-09-19T06:13:19;15.96;76.63
70294;DHT22;72548;48.884;2.334;2023-09-19T06:15:45;15.96;76.86
70294;DHT22;72548;48.884;2.334;2023-09-19T06:18:12;15.95;76.80
70294;DHT22;72548;48.884;2.334;2023-09-19T06:20:47;15.93;76.90
70294;DHT22;72548;48.884;2.334;2023-09-19T06:23:13;16.01;76.49
70294;DHT22;72548;48.884;2.334;2023-09-19T06:25:40;15.96;76.53
70294;DHT22;72548;48.884;2.334;2023-09-19T06:28:06;15.91;76.59
70294;DHT22;72548;48.884;2.334;2023-09-19T06:30:33;16.01;76.69
70294;DHT22;72548;48.884;2.334;2023-09-19T06:33:00;15.99;76.71
70294;DHT22;72548;48.884;2.334;2023-09-19T06:35:27;15.98;76.62
70294;DHT22;72548;48.884;2.334;2023-09-19T06:37:54;15.98;76.76
70294;DHT22;72548;48.884;2.334;2023-09-19T06:40:23;16.01;76.65
70294;DHT22;72548;48.884;2.334;2023-09-19T06:42:53;16.17;76.45
70294;DHT22;72548;48.884;2.334;2023-09-19T06:45:19;16.12;76.22
70294;DHT22;72548;48.884;2.334;2023-09-19T06:47:49;16.19;76.13
70294;DHT22;72548;48.884;2.334;2023-09-19T06:50:15;16.09;76.01
70294;DHT22;72548;48.884;2.334;2023-09-19T06:52:44;16.17;75.71
70294;DHT22;72548;48.884;2.334;2023-09-19T06:55:10;16.20;75.83
70294;DHT22;72548;48.884;2.334;2023-09-19T06:57:38;16.23;75.63
70294;DHT22;72548;48.884;2.334;2023-09-19T07:00:06;16.41;75.06
70294;DHT22;72548;48.884;2.334;2023-09-19T07:02:44;16.30;75.52
70294;DHT22;72548;48.884;2.334;2023-09-19T07:05:09;16.29;75.62
70294;DHT22;72548;48.884;2.334;2023-09-19T07:07:35;16.30;75.18
70294;DHT22;72548;48.884;2.334;2023-09-19T07:10:02;16.31;75.44
70294;DHT22;72548;48.884;2.334;2023-09-19T07:12:27;16.39;75.22
70294;DHT22;72548;48.884;2.334;2023-09-19T07:14:53;16.51;74.48
70294;DHT22;72548;48.884;2.334;2023-09-19T07:17:18;16.59;74.60
70294;DHT22;72548;48.884;2.334;2023-09-19T07:19:45;16.75;73.64
70294;DHT22;72548;48.884;2.334;2023-09-19T07:22:10;16.80;73.49
70294;DHT22;72548;48.884;2.334;2023-09-19T07:24:36;16.75;73.48
70294;DHT22;72548;48.884;2.334;2023-09-19T07:27:03;16.99;72.79
70294;DHT22;72548;48.884;2.334;2023-09-19T07:29:30;16.94;72.87
70294;DHT22;72548;48.884;2.334;2023-09-19T07:31:55;17.05;72.46
70294;DHT22;72548;48.884;2.334;2023-09-19T07:34:21;17.09;72.22
70294;DHT22;72548;48.884;2.334;2023-09-19T07:36:48;17.19;71.74
70294;DHT22;72548;48.884;2.334;2023-09-19T07:39:13;17.09;71.76
70294;DHT22;72548;48.884;2.334;2023-09-19T07:41:39;17.28;70.92
70294;DHT22;72548;48.884;2.334;2023-09-19T07:44:04;17.29;71.18
70294;DHT22;72548;48.884;2.334;2023-09-19T07:46:30;17.42;70.48
70294;DHT22;72548;48.884;2.334;2023-09-19T07:48:59;17.36;70.70
70294;DHT22;72548;48.884;2.334;2023-09-19T07:51:25;17.46;69.87
70294;DHT22;72548;48.884;2.334;2023-09-19T07:53:51;17.51;70.08
70294;DHT22;72548;48.884;2.334;2023-09-19T07:56:17;17.53;69.24
70294;DHT22;72548;48.884;2.334;2023-09-19T07:58:45;17.60;69.11
70294;DHT22;72548;48.884;2.334;2023-09-19T08:01:11;17.46;69.33
70294;DHT22;72548;48.884;2.334;2023-09-19T08:03:37;17.56;69.33
70294;DHT22;72548;48.884;2.334;2023-09-19T08:06:06;17.63;69.27
70294;DHT22;72548;48.884;2.334;2023-09-19T08:08:34;17.77;69.27
70294;DHT22;72548;48.884;2.334;2023-09-19T08:11:06;17.90;68.73
70294;DHT22;72548;48.884;2.334;2023-09-19T08:13:41;17.79;68.33
70294;DHT22;72548;48.884;2.334;2023-09-19T08:16:11;17.91;68.60
70294;DHT22;72548;48.884;2.334;2023-09-19T08:18:37;17.87;68.42
70294;DHT22;72548;48.884;2.334;2023-09-19T08:21:05;17.98;68.42
70294;DHT22;72548;48.884;2.334;2023-09-19T08:23:32;18.12;67.58
70294;DHT22;72548;48.884;2.334;2023-09-19T08:25:58;18.12;67.79
70294;DHT22;72548;48.884;2.334;2023-09-19T08:28:28;18.04;67.61
70294;DHT22;72548;48.884;2.334;2023-09-19T08:30:55;18.32;67.55
70294;DHT22;72548;48.884;2.334;2023-09-19T08:33:21;18.22;67.39
70294;DHT22;72548;48.884;2.334;2023-09-19T08:35:47;18.51;66.56
70294;DHT22;72548;48.884;2.334;2023-09-19T08:38:13;18.85;66.14
70294;DHT22;72548;48.884;2.334;2023-09-19T08:40:39;19.30;65.10
70294;DHT22;72548;48.884;2.334;2023-09-19T08:43:07;19.58;63.33
70294;DHT22;72548;48.884;2.334;2023-09-19T08:45:33;19.93;62.70
70294;DHT22;72548;48.884;2.334;2023-09-19T08:48:22;20.23;61.49
70294;DHT22;72548;48.884;2.334;2023-09-19T08:50:54;20.73;60.65
70294;DHT22;72548;48.884;2.334;2023-09-19T08:53:27;20.68;61.04
70294;DHT22;72548;48.884;2.334;2023-09-19T08:55:54;20.61;60.93
70294;DHT22;72548;48.884;2.334;2023-09-19T08:58:25;20.51;60.91
70294;DHT22;72548;48.884;2.334;2023-09-19T09:00:54;20.63;61.16
70294;DHT22;72548;48.884;2.334;2023-09-19T09:03:22;20.64;61.22
70294;DHT22;72548;48.884;2.334;2023-09-19T09:05:49;20.77;60.51
70294;DHT22;72548;48.884;2.334;2023-09-19T09:08:16;20.95;60.29
70294;DHT22;72548;48.884;2.334;2023-09-19T09:10:44;20.65;60.26
70294;DHT22;72548;48.884;2.334;2023-09-19T09:13:10;20.95;59.79
70294;DHT22;72548;48.884;2.334;2023-09-19T09:15:40;21.84;58.22
70294;DHT22;72548;48.884;2.334;2023-09-19T09:18:06;22.47;56.29
70294;DHT22;72548;48.884;2.334;2023-09-19T09:20:32;22.11;56.73
70294;DHT22;72548;48.884;2.334;2023-09-19T09:23:00;22.28;56.22
70294;DHT22;72548;48.884;2.334;2023-09-19T09:25:48;22.68;55.46
70294;DHT22;72548;48.884;2.334;2023-09-19T09:28:20;23.30;53.61
70294;DHT22;72548;48.884;2.334;2023-09-19T09:30:46;24.23;51.92
70294;DHT22;72548;48.884;2.334;2023-09-19T09:33:13;24.26;51.46
70294;DHT22;72548;48.884;2.334;2023-09-19T09:35:55;23.96;51.52
70294;DHT22;72548;48.884;2.334;2023-09-19T09:38:30;25.22;48.80
70294;DHT22;72548;48.884;2.334;2023-09-19T09:41:09;25.77;47.14
70294;DHT22;72548;48.884;2.334;2023-09-19T09:43:39;26.65;45.71
70294;DHT22;72548;48.884;2.334;2023-09-19T09:46:17;27.34;44.10
70294;DHT22;72548;48.884;2.334;2023-09-19T09:51:50;28.28;41.38
70294;DHT22;72548;48.884;2.334;2023-09-19T09:54:26;28.84;40.89
70294;DHT22;72548;48.884;2.334;2023-09-19T09:57:10;28.42;40.50
70294;DHT22;72548;48.884;2.334;2023-09-19T10:02:19;26.92;42.16
70294;DHT22;72548;48.884;2.334;2023-09-19T10:07:50;28.55;40.03
70294;DHT22;72548;48.884;2.334;2023-09-19T10:10:37;29.27;38.53
70294;DHT22;72548;48.884;2.334;2023-09-19T10:13:13;29.14;38.25
70294;DHT22;72548;48.884;2.334;2023-09-19T10:15:42;29.22;38.34
70294;DHT22;72548;48.884;2.334;2023-09-19T10:18:14;28.53;38.86
70294;DHT22;72548;48.884;2.334;2023-09-19T10:20:45;28.39;38.72
70294;DHT22;72548;48.884;2.334;2023-09-19T10:23:11;26.98;41.40
70294;DHT22;72548;48.884;2.334;2023-09-19T10:25:43;28.11;39.88
70294;DHT22;72548;48.884;2.334;2023-09-19T10:28:13;28.94;38.46
70294;DHT22;72548;48.884;2.334;2023-09-19T10:30:44;29.63;37.65
70294;DHT22;72548;48.884;2.334;2023-09-19T10:33:14;28.64;38.80
70294;DHT22;72548;48.884;2.334;2023-09-19T10:35:43;25.83;43.28
70294;DHT22;72548;48.884;2.334;2023-09-19T10:38:22;25.34;44.45
70294;DHT22;72548;48.884;2.334;2023-09-19T10:40:50;25.67;44.22
70294;DHT22;72548;48.884;2.334;2023-09-19T10:43:18;25.80;44.23
70294;DHT22;72548;48.884;2.334;2023-09-19T10:45:47;25.38;45.05
70294;DHT22;72548;48.884;2.334;2023-09-19T10:48:18;25.36;45.05
70294;DHT22;72548;48.884;2.334;2023-09-19T10:50:50;24.09;46.69
70294;DHT22;72548;48.884;2.334;2023-09-19T10:53:17;24.13;47.62
70294;DHT22;72548;48.884;2.334;2023-09-19T10:56:03;23.79;47.79
70294;DHT22;72548;48.884;2.334;2023-09-19T10:58:35;23.65;47.99
70294;DHT22;72548;48.884;2.334;2023-09-19T11:01:04;23.38;48.34
70294;DHT22;72548;48.884;2.334;2023-09-19T11:03:38;23.68;48.36
70294;DHT22;72548;48.884;2.334;2023-09-19T11:06:16;23.86;47.29
70294;DHT22;72548;48.884;2.334;2023-09-19T11:09:11;23.79;47.63
70294;DHT22;72548;48.884;2.334;2023-09-19T11:11:44;23.78;47.47
70294;DHT22;72548;48.884;2.334;2023-09-19T11:25:41;23.30;48.58
70294;DHT22;72548;48.884;2.334;2023-09-19T11:30:42;23.94;48.17
70294;DHT22;72548;48.884;2.334;2023-09-19T11:49:18;23.02;51.07
70294;DHT22;72548;48.884;2.334;2023-09-19T11:51:46;23.00;51.10
70294;DHT22;72548;48.884;2.334;2023-09-19T11:54:14;22.96;50.87
70294;DHT22;72548;48.884;2.334;2023-09-19T11:56:44;22.90;51.07
70294;DHT22;72548;48.884;2.334;2023-09-19T11:59:11;22.00;53.29
70294;DHT22;72548;48.884;2.334;2023-09-19T12:01:38;22.37;52.78
70294;DHT22;72548;48.884;2.334;2023-09-19T12:04:11;21.79;54.41
70294;DHT22;72548;48.884;2.334;2023-09-19T12:06:37;21.89;54.58
70294;DHT22;72548;48.884;2.334;2023-09-19T12:09:12;21.79;54.79
70294;DHT22;72548;48.884;2.334;2023-09-19T12:11:42;22.12;54.01
70294;DHT22;72548;48.884;2.334;2023-09-19T12:14:09;22.24;54.08
70294;DHT22;72548;48.884;2.334;2023-09-19T12:16:35;22.08;54.58
70294;DHT22;72548;48.884;2.334;2023-09-19T12:19:18;22.48;53.96
70294;DHT22;72548;48.884;2.334;2023-09-19T12:22:00;22.86;53.21
70294;DHT22;72548;48.884;2.334;2023-09-19T12:24:30;23.82;51.94
70294;DHT22;72548;48.884;2.334;2023-09-19T12:27:03;25.36;48.41
70294;DHT22;72548;48.884;2.334;2023-09-19T12:29:30;25.01;48.36
70294;DHT22;72548;48.884;2.334;2023-09-19T12:31:58;24.74;49.28
70294;DHT22;72548;48.884;2.334;2023-09-19T12:34:28;24.44;49.78
70294;DHT22;72548;48.884;2.334;2023-09-19T12:37:13;23.92;51.12
70294;DHT22;72548;48.884;2.334;2023-09-19T12:39:53;23.46;52.57
70294;DHT22;72548;48.884;2.334;2023-09-19T12:42:25;23.06;53.28
70294;DHT22;72548;48.884;2.334;2023-09-19T12:44:54;23.94;52.12
70294;DHT22;72548;48.884;2.334;2023-09-19T12:47:22;23.57;52.13
70294;DHT22;72548;48.884;2.334;2023-09-19T12:50:14;24.06;51.01
70294;DHT22;72548;48.884;2.334;2023-09-19T12:55:07;23.41;52.31
70294;DHT22;72548;48.884;2.334;2023-09-19T12:57:34;24.10;51.02
70294;DHT22;72548;48.884;2.334;2023-09-19T13:00:03;23.79;51.11
70294;DHT22;72548;48.884;2.334;2023-09-19T13:02:32;23.11;52.46
70294;DHT22;72548;48.884;2.334;2023-09-19T13:04:58;23.11;52.60
70294;DHT22;72548;48.884;2.334;2023-09-19T13:07:44;23.75;51.31
70294;DHT22;72548;48.884;2.334;2023-09-19T13:10:11;23.41;52.02
70294;DHT22;72548;48.884;2.334;2023-09-19T13:12:40;23.65;51.72
70294;DHT22;72548;48.884;2.334;2023-09-19T13:15:11;23.46;52.26
70294;DHT22;72548;48.884;2.334;2023-09-19T13:17:46;23.62;51.80
70294;DHT22;72548;48.884;2.334;2023-09-19T13:20:24;23.71;51.64
70294;DHT22;72548;48.884;2.334;2023-09-19T13:22:53;23.64;51.32
70294;DHT22;72548;48.884;2.334;2023-09-19T13:25:35;23.31;52.20
70294;DHT22;72548;48.884;2.334;2023-09-19T13:28:01;23.51;51.91
70294;DHT22;72548;48.884;2.334;2023-09-19T13:30:30;22.90;53.13
70294;DHT22;72548;48.884;2.334;2023-09-19T13:33:07;22.99;53.52
70294;DHT22;72548;48.884;2.334;2023-09-19T13:35:33;23.43;52.45
70294;DHT22;72548;48.884;2.334;2023-09-19T13:37:58;23.04;52.96
70294;DHT22;72548;48.884;2.334;2023-09-19T13:40:24;22.85;53.48
70294;DHT22;72548;48.884;2.334;2023-09-19T13:43:00;23.28;52.91
70294;DHT22;72548;48.884;2.334;2023-09-19T13:45:26;23.64;51.98
70294;DHT22;72548;48.884;2.334;2023-09-19T13:47:52;23.86;51.74
70294;DHT22;72548;48.884;2.334;2023-09-19T13:50:18;24.25;52.48
70294;DHT22;72548;48.884;2.334;2023-09-19T13:52:49;24.26;51.87
70294;DHT22;72548;48.884;2.334;2023-09-19T13:55:16;23.99;50.73
70294;DHT22;72548;48.884;2.334;2023-09-19T13:57:46;24.02;50.59
70294;DHT22;72548;48.884;2.334;2023-09-19T14:00:12;23.90;51.07
70294;DHT22;72548;48.884;2.334;2023-09-19T14:02:41;23.82;51.05
70294;DHT22;72548;48.884;2.334;2023-09-19T14:05:11;23.86;50.79
70294;DHT22;72548;48.884;2.334;2023-09-19T14:07:42;23.75;50.82
70294;DHT22;72548;48.884;2.334;2023-09-19T14:10:09;23.78;51.18
70294;DHT22;72548;48.884;2.334;2023-09-19T14:12:36;23.75;50.70
70294;DHT22;72548;48.884;2.334;2023-09-19T14:15:03;23.69;50.83
70294;DHT22;72548;48.884;2.334;2023-09-19T14:17:29;23.84;50.77
70294;DHT22;72548;48.884;2.334;2023-09-19T14:19:54;23.75;50.25
70294;DHT22;72548;48.884;2.334;2023-09-19T14:22:20;23.71;50.87
70294;DHT22;72548;48.884;2.334;2023-09-19T14:24:45;23.50;51.59
70294;DHT22;72548;48.884;2.334;2023-09-19T14:27:11;23.43;51.90
70294;DHT22;72548;48.884;2.334;2023-09-19T14:29:36;23.48;52.12
70294;DHT22;72548;48.884;2.334;2023-09-19T14:32:02;23.51;52.25
70294;DHT22;72548;48.884;2.334;2023-09-19T14:34:28;23.46;51.89
70294;DHT22;72548;48.884;2.334;2023-09-19T14:36:53;23.54;52.12
70294;DHT22;72548;48.884;2.334;2023-09-19T14:39:20;23.34;52.15
70294;DHT22;72548;48.884;2.334;2023-09-19T14:41:45;23.06;52.80
70294;DHT22;72548;48.884;2.334;2023-09-19T14:44:11;23.14;53.47
70294;DHT22;72548;48.884;2.334;2023-09-19T14:46:36;23.09;53.50
70294;DHT22;72548;48.884;2.334;2023-09-19T14:49:02;23.00;53.45
70294;DHT22;72548;48.884;2.334;2023-09-19T14:51:30;23.04;53.39
70294;DHT22;72548;48.884;2.334;2023-09-19T14:53:55;22.99;53.46
70294;DHT22;72548;48.884;2.334;2023-09-19T14:56:22;23.02;53.64
70294;DHT22;72548;48.884;2.334;2023-09-19T14:58:49;23.04;53.67
70294;DHT22;72548;48.884;2.334;2023-09-19T15:01:14;22.89;53.97
70294;DHT22;72548;48.884;2.334;2023-09-19T15:03:41;22.96;54.11
70294;DHT22;72548;48.884;2.334;2023-09-19T15:06:09;22.98;54.41
70294;DHT22;72548;48.884;2.334;2023-09-19T15:08:37;23.00;54.27
70294;DHT22;72548;48.884;2.334;2023-09-19T15:11:08;22.85;54.65
70294;DHT22;72548;48.884;2.334;2023-09-19T15:13:35;22.83;55.06
70294;DHT22;72548;48.884;2.334;2023-09-19T15:16:01;22.88;54.94
70294;DHT22;72548;48.884;2.334;2023-09-19T15:18:28;22.93;54.73
70294;DHT22;72548;48.884;2.334;2023-09-19T15:20:55;22.92;54.69
70294;DHT22;72548;48.884;2.334;2023-09-19T15:23:20;22.89;55.03
70294;DHT22;72548;48.884;2.334;2023-09-19T15:25:49;22.80;55.16
70294;DHT22;72548;48.884;2.334;2023-09-19T15:28:14;22.72;55.15
70294;DHT22;72548;48.884;2.334;2023-09-19T15:30:40;22.68;55.42
70294;DHT22;72548;48.884;2.334;2023-09-19T15:33:05;22.73;55.63
70294;DHT22;72548;48.884;2.334;2023-09-19T15:35:30;22.70;55.63
70294;DHT22;72548;48.884;2.334;2023-09-19T15:37:56;22.75;55.46
70294;DHT22;72548;48.884;2.334;2023-09-19T15:40:23;22.73;55.26
70294;DHT22;72548;48.884;2.334;2023-09-19T15:42:49;22.79;55.28
70294;DHT22;72548;48.884;2.334;2023-09-19T15:45:15;22.86;55.25
70294;DHT22;72548;48.884;2.334;2023-09-19T15:47:41;22.90;54.96
70294;DHT22;72548;48.884;2.334;2023-09-19T15:50:08;22.80;55.41
70294;DHT22;72548;48.884;2.334;2023-09-19T15:52:35;22.79;55.35
70294;DHT22;72548;48.884;2.334;2023-09-19T15:55:03;22.88;55.38
70294;DHT22;72548;48.884;2.334;2023-09-19T15:57:38;22.95;55.20
70294;DHT22;72548;48.884;2.334;2023-09-19T16:00:04;22.98;54.79
70294;DHT22;72548;48.884;2.334;2023-09-19T16:02:36;22.90;55.15
70294;DHT22;72548;48.884;2.334;2023-09-19T16:05:01;22.90;55.19
70294;DHT22;72548;48.884;2.334;2023-09-19T16:07:32;22.95;55.26
70294;DHT22;72548;48.884;2.334;2023-09-19T16:09:59;22.90;55.40
70294;DHT22;72548;48.884;2.334;2023-09-19T16:12:25;22.93;55.49
70294;DHT22;72548;48.884;2.334;2023-09-19T16:14:51;22.83;55.89
70294;DHT22;72548;48.884;2.334;2023-09-19T16:17:16;22.72;56.13
70294;DHT22;72548;48.884;2.334;2023-09-19T16:19:42;22.70;56.52
70294;DHT22;72548;48.884;2.334;2023-09-19T16:22:09;22.73;56.75
70294;DHT22;72548;48.884;2.334;2023-09-19T16:24:34;22.66;56.53
70294;DHT22;72548;48.884;2.334;2023-09-19T16:27:00;22.51;57.03
70294;DHT22;72548;48.884;2.334;2023-09-19T16:29:25;22.44;57.33